Ursvikens väder

stationens status  
Klimatstatistik

Klimatstatistik


Report for 2009 Oct
                   Monthly Climatological Summary for okt 2009

Name: Ursviken   City:    State: 
Elevation: 35 m  Lat: N 64° 42' 41"   Lon: E 021° 10' 44"

                  Temperature (°C), Rain (mm), Wind Speed (m/s)

                                      Heat  Cool        Avg
    Mean                              Deg   Deg         Wind                 Dom
Day Temp  High   Time   Low    Time   Days  Days  Rain  Speed High   Time    Dir
----------------------------------------------------------------------------------
 1   2,6   9,5   00:00  -4,3   00:00  15,7   0,0   0,0   0,2   2,7   00:00   ---
 2   2,7  10,3   00:00  -4,9   00:00  15,6   0,0   0,0   0,3   3,1   00:00   ---
 3   2,4   9,4   00:00  -4,6   00:00  15,9   0,0   0,0   0,2   2,4   00:00   ---
 4   4,1   6,9   00:00   1,2   00:00  14,2   0,0  41,7   2,0   7,8   00:00   ---
 5   0,9   6,0   00:00  -4,2   00:00  17,4   0,0  43,5   1,6   7,5   00:00   ---
 6   1,3   8,8   00:00  -6,2   00:00  17,0   0,0   1,5   0,2   2,4   00:00   ---
 7   3,7   7,5   00:00  -0,1   00:00  14,6   0,0  16,8   1,7   8,5   00:00   ---
 8   2,5   7,7   00:00  -2,8   00:00  15,8   0,0  16,8   0,8   6,5   00:00   ---
 9   2,9   7,5   00:00  -1,7   00:00  15,4   0,0   0,0   1,0   6,5   00:00   ---
10   1,9   7,6   00:00  -3,8   00:00  16,4   0,0   0,0   0,7   4,4   00:00   ---
11   0,2   6,7   00:00  -6,3   00:00  18,1   0,0   0,0   0,1   1,4   00:00   ---
12  -1,8   3,1   00:00  -6,7   00:00  20,1   0,0   0,0   0,4   4,8   00:00   ---
13   0,2   4,9   00:00  -4,5   00:00   4,9   0,0   0,0   0,9   5,1   00:00     S
14  -1,5   5,6   00:00  -8,6   00:00  19,8   0,0   0,0   0,1   1,7   00:00   ---
15   5,9  11,5   00:00   0,4   00:00  12,3   0,0   0,0   0,4   4,1   00:00   ---
16   5,3   6,4   00:00   4,2   00:00   9,2   0,0  12,3   0,7   3,7   00:00    SV
17   1,9   7,6   00:00  -3,9   00:00  16,4   0,0  12,3   0,7   5,8   00:00   ---
18  -1,5   2,2   00:00  -5,2   00:00  19,8   0,0   0,0   0,1   2,4   00:00   ---
19   1,5   3,4   00:00  -0,5   00:00  12,2   0,0   0,9   0,0   2,7   00:00     S
20   1,8   6,7   00:00  -3,2   00:00  16,5   0,0   1,2   0,1   2,7   00:00   ---
21   1,8   7,3   00:00  -3,7   00:00  16,5   0,0   0,3   0,0   1,7   00:00   ---
22   3,5   5,3   00:00   1,7   00:00  14,8   0,0   0,0   0,1   2,0   00:00   ---
23   1,5   3,1   00:00   0,0   00:00  16,8  34,9   1,2   0,8   4,1   00:00   ---
24  -0,4   0,2   00:00  -1,0   00:00  18,7   0,0   1,2   0,0   0,0   00:00   ---
25   1,8   3,4   00:00   0,2   00:00  16,5   0,0   2,7   0,1   1,7   00:00   ---
26   3,3   5,1   00:00   1,6   00:00  14,9   0,0   3,0   0,1   1,0   00:00   ---
27   2,2   3,4   00:00   0,9   00:00  16,1   0,0   1,8   0,2   2,4   00:00   ---
28  -0,5   1,8   00:00  -2,8   00:00  18,8   0,0   1,8   0,4   4,4   00:00   ---
29  -0,3   4,4   00:00  -4,9   00:00  18,5   0,0   0,0   0,0   1,0   00:00   ---
30  -2,2  -1,0   00:00  -3,4   00:00  20,5   0,0   0,0   0,0   0,0   00:00   ---
31  -0,4   1,4   00:00  -2,3   00:00  18,8   0,0   0,0   0,1   2,7   00:00   ---
----------------------------------------------------------------------------------
     1,5  11,5    15    -8,6    14   498,5  34,9 159,0   0,5   8,5     7       N

Max >=  20,0:  0
Max <=   0,0:  1
Min <=   0,0: 24
Min <= -20,0:  0
Max Rain: 43,5 on day 5
Days of Rain: 16 (>= 0,2 mm)  8 (>= 2,0 mm)  2 (>= 20,0 mm)
Heat Base: 18,3  Cool Base: 18,3  Method: Integration
 
: nu: mätare: diagram: idag och igår: månad och år: rekord: månadsrekord: statistik:
Startsidan Ursviken Örviken

Välkommen till Lundströms väder
Väderstationen som används är en WH1080, Uppdaterad 2024-06-13 15:30:01
skapad av Cumulus v1.9.4 (10992)
Forum
sedan 22 dec 2012